Time;durP1;ratioP1;P1;durP2;ratioP2;P2;SDS_P1;SDS_P2;PMS_P1;PMS_P2;Temp;Humidity;BMP_temperature;BMP_pressure;BME280_temperature;BME280_humidity;BME280_pressure;Samples;Min_cycle;Max_cycle;Signal;HPM_P1;HPM_P2
2021/06/21 00:01:20;;;;;;;16.23;10.57;;;;;;;;;;4991606;28;20396;-50
2021/06/21 00:03:47;;;;;;;11.90;10.90;;;;;;;;;;4991345;28;20774;-51
2021/06/21 00:06:13;;;;;;;10.17;9.07;;;;;;;;;;4991939;28;20814;-51
2021/06/21 00:08:39;;;;;;;12.80;10.93;;;;;;;;;;4991492;28;20408;-50
2021/06/21 00:11:05;;;;;;;12.00;10.80;;;;;;;;;;4991705;28;20400;-50
2021/06/21 00:13:31;;;;;;;15.93;11.70;;;;;;;;;;4991209;28;20404;-51
2021/06/21 00:15:57;;;;;;;12.97;11.70;;;;;;;;;;4991720;28;20848;-51
2021/06/21 00:18:24;;;;;;;12.20;11.20;;;;;;;;;;4992069;28;20435;-51
2021/06/21 00:20:51;;;;;;;12.10;10.93;;;;;;;;;;4991929;28;20416;-50
2021/06/21 00:23:17;;;;;;;13.43;12.13;;;;;;;;;;4991846;28;20838;-52
2021/06/21 00:25:44;;;;;;;14.67;13.37;;;;;;;;;;4991376;28;20479;-50
2021/06/21 00:28:10;;;;;;;13.27;12.17;;;;;;;;;;4991155;28;20401;-50
2021/06/21 00:30:36;;;;;;;15.30;13.90;;;;;;;;;;4991522;28;20407;-50
2021/06/21 00:33:02;;;;;;;15.87;14.30;;;;;;;;;;4991436;28;20479;-50
2021/06/21 00:35:28;;;;;;;17.10;13.60;;;;;;;;;;4991446;28;20404;-50
2021/06/21 00:37:54;;;;;;;16.27;13.33;;;;;;;;;;4991413;28;20494;-51
2021/06/21 00:40:20;;;;;;;15.50;14.10;;;;;;;;;;4973419;28;20416;-51
2021/06/21 00:42:47;;;;;;;15.43;14.03;;;;;;;;;;4990368;28;20431;-52
2021/06/21 00:45:14;;;;;;;14.30;12.90;;;;;;;;;;4990822;28;20848;-50
2021/06/21 00:47:40;;;;;;;15.27;13.67;;;;;;;;;;4990765;28;20410;-52
2021/06/21 00:50:07;;;;;;;16.50;14.80;;;;;;;;;;4990654;28;20414;-50
2021/06/21 00:52:33;;;;;;;15.90;14.50;;;;;;;;;;4990630;28;21032;-50
2021/06/21 00:55:00;;;;;;;16.40;14.87;;;;;;;;;;4990700;28;20823;-49
2021/06/21 00:57:29;;;;;;;16.07;14.10;;;;;;;;;;4990427;28;20494;-54
2021/06/21 00:59:57;;;;;;;16.80;15.10;;;;;;;;;;4990664;28;20905;-49
2021/06/21 01:02:24;;;;;;;19.40;17.53;;;;;;;;;;4990794;28;20427;-50
2021/06/21 01:04:50;;;;;;;17.83;16.13;;;;;;;;;;4990670;28;20404;-49
2021/06/21 01:07:16;;;;;;;19.27;16.47;;;;;;;;;;4990662;28;20896;-49
2021/06/21 01:09:42;;;;;;;17.40;15.80;;;;;;;;;;4990529;28;20404;-50
2021/06/21 01:12:19;;;;;;;18.97;17.07;;;;;;;;;;4990420;28;20993;-49
2021/06/21 01:14:49;;;;;;;18.87;16.93;;;;;;;;;;4990442;28;20489;-52
2021/06/21 01:17:19;;;;;;;18.47;16.30;;;;;;;;;;4990261;28;20451;-49
2021/06/21 01:20:03;;;;;;;18.97;17.13;;;;;;;;;;4990882;28;20980;-49
2021/06/21 01:22:47;;;;;;;19.77;17.83;;;;;;;;;;4990084;28;20481;-49
2021/06/21 01:25:33;;;;;;;22.53;18.53;;;;;;;;;;4990546;28;20910;-50
2021/06/21 01:28:04;;;;;;;19.90;17.83;;;;;;;;;;4990344;28;20403;-50
2021/06/21 01:30:42;;;;;;;18.20;16.37;;;;;;;;;;4990319;28;20414;-49
2021/06/21 01:33:09;;;;;;;17.47;15.80;;;;;;;;;;4990342;28;20426;-50
2021/06/21 01:35:36;;;;;;;18.07;16.37;;;;;;;;;;4990400;28;20411;-49
2021/06/21 01:38:05;;;;;;;18.70;17.00;;;;;;;;;;4989993;28;20549;-51
2021/06/21 01:40:36;;;;;;;17.53;15.87;;;;;;;;;;4993010;28;20404;-49
2021/06/21 01:43:04;;;;;;;16.97;15.27;;;;;;;;;;4993770;28;20455;-50
2021/06/21 01:45:31;;;;;;;17.27;15.67;;;;;;;;;;4993829;28;20411;-50
2021/06/21 01:47:57;;;;;;;17.47;15.87;;;;;;;;;;4993668;28;20860;-50
2021/06/21 01:50:24;;;;;;;18.07;16.20;;;;;;;;;;4993941;28;20407;-50
2021/06/21 01:53:10;;;;;;;18.00;16.07;;;;;;;;;;4993469;28;20896;-51
2021/06/21 01:55:38;;;;;;;17.30;15.57;;;;;;;;;;4993512;28;20942;-51
2021/06/21 01:58:05;;;;;;;18.30;16.50;;;;;;;;;;4993669;28;20994;-49
2021/06/21 02:00:31;;;;;;;18.77;16.97;;;;;;;;;;4993582;28;20966;-49
2021/06/21 02:02:58;;;;;;;23.20;19.30;;;;;;;;;;4993349;28;20424;-51
2021/06/21 02:05:25;;;;;;;19.80;17.70;;;;;;;;;;4993640;28;20397;-50
2021/06/21 02:07:52;;;;;;;21.77;19.67;;;;;;;;;;4993154;28;20415;-51
2021/06/21 02:10:19;;;;;;;22.60;20.37;;;;;;;;;;4993464;28;20502;-50
2021/06/21 02:12:46;;;;;;;23.87;21.57;;;;;;;;;;4993237;28;20428;-49
2021/06/21 02:15:12;;;;;;;30.33;27.33;;;;;;;;;;4993500;28;20397;-50
2021/06/21 02:17:38;;;;;;;34.27;30.67;;;;;;;;;;4992942;28;20459;-50
2021/06/21 02:20:05;;;;;;;38.17;34.03;;;;;;;;;;4993509;28;20431;-51
2021/06/21 02:22:31;;;;;;;39.27;35.37;;;;;;;;;;4993005;28;20419;-50
2021/06/21 02:24:59;;;;;;;37.20;33.53;;;;;;;;;;4993364;28;20944;-49
2021/06/21 02:27:25;;;;;;;38.77;34.73;;;;;;;;;;4993396;28;20551;-50
2021/06/21 02:29:52;;;;;;;42.77;38.07;;;;;;;;;;4975417;28;20431;-50
2021/06/21 02:32:19;;;;;;;43.40;38.83;;;;;;;;;;4993070;28;20496;-49
2021/06/21 02:34:45;;;;;;;48.17;43.03;;;;;;;;;;4992887;28;20386;-51
2021/06/21 02:37:11;;;;;;;47.00;42.20;;;;;;;;;;4993351;28;20503;-50
2021/06/21 02:39:38;;;;;;;44.87;40.10;;;;;;;;;;4992962;28;20486;-49
2021/06/21 02:42:04;;;;;;;45.70;40.90;;;;;;;;;;4992980;28;20420;-50
2021/06/21 02:44:30;;;;;;;44.93;40.47;;;;;;;;;;4992776;28;20849;-49
2021/06/21 02:46:56;;;;;;;48.43;43.53;;;;;;;;;;4992918;28;20412;-49
2021/06/21 02:49:22;;;;;;;49.57;44.40;;;;;;;;;;4992827;28;20499;-49
2021/06/21 02:51:53;;;;;;;47.67;42.60;;;;;;;;;;4992032;28;20598;-50
2021/06/21 02:54:28;;;;;;;47.60;42.77;;;;;;;;;;4992589;28;20495;-51
2021/06/21 02:57:09;;;;;;;46.00;41.03;;;;;;;;;;4992512;28;20495;-51
2021/06/21 02:59:37;;;;;;;47.50;42.70;;;;;;;;;;4992481;28;20939;-53
2021/06/21 03:02:03;;;;;;;48.90;42.17;;;;;;;;;;4992662;28;20431;-50
2021/06/21 03:04:29;;;;;;;42.73;38.43;;;;;;;;;;4992435;28;20574;-49
2021/06/21 03:06:56;;;;;;;41.50;37.33;;;;;;;;;;4992723;28;20447;-53
2021/06/21 03:09:22;;;;;;;39.70;35.90;;;;;;;;;;4992750;28;20411;-50
2021/06/21 03:11:50;;;;;;;40.50;36.60;;;;;;;;;;4992578;28;20420;-50
2021/06/21 03:14:16;;;;;;;38.73;34.83;;;;;;;;;;4992234;28;20467;-51
2021/06/21 03:16:42;;;;;;;34.17;30.57;;;;;;;;;;4991965;28;20466;-52
2021/06/21 03:19:13;;;;;;;23.50;21.03;;;;;;;;;;4992099;28;20812;-49
2021/06/21 03:21:39;;;;;;;31.60;24.33;;;;;;;;;;4992176;28;20459;-49
2021/06/21 03:24:05;;;;;;;28.77;26.03;;;;;;;;;;4992435;28;20371;-49
2021/06/21 03:26:31;;;;;;;23.43;21.33;;;;;;;;;;4991888;28;20416;-50
2021/06/21 03:28:57;;;;;;;21.87;19.63;;;;;;;;;;4992244;28;20428;-49
2021/06/21 03:31:24;;;;;;;21.77;19.60;;;;;;;;;;4991850;28;20430;-50
2021/06/21 03:33:51;;;;;;;24.23;19.67;;;;;;;;;;4991875;28;20454;-51
2021/06/21 03:36:17;;;;;;;20.30;18.30;;;;;;;;;;4991818;28;20467;-50
2021/06/21 03:38:43;;;;;;;22.67;20.20;;;;;;;;;;4991721;28;20400;-50
2021/06/21 03:41:09;;;;;;;21.47;19.37;;;;;;;;;;4991713;28;20386;-50
2021/06/21 03:43:35;;;;;;;20.87;18.93;;;;;;;;;;4991799;28;20405;-50
2021/06/21 03:46:04;;;;;;;19.53;17.73;;;;;;;;;;4991414;28;20404;-51
2021/06/21 03:48:30;;;;;;;18.43;16.63;;;;;;;;;;4991615;28;20415;-50
2021/06/21 03:50:57;;;;;;;17.60;16.03;;;;;;;;;;4991561;28;20408;-49
2021/06/21 03:53:24;;;;;;;17.67;16.17;;;;;;;;;;4991415;28;20518;-50
2021/06/21 03:55:51;;;;;;;18.80;17.13;;;;;;;;;;4991766;28;20411;-50
2021/06/21 03:58:17;;;;;;;18.87;17.17;;;;;;;;;;4991428;28;20876;-50
2021/06/21 04:00:43;;;;;;;20.57;18.57;;;;;;;;;;4991132;28;20408;-50
2021/06/21 04:03:09;;;;;;;22.07;19.77;;;;;;;;;;4990516;28;20934;-50
2021/06/21 04:05:39;;;;;;;21.20;19.27;;;;;;;;;;4991327;28;20487;-50
2021/06/21 04:08:06;;;;;;;21.67;19.50;;;;;;;;;;4991605;28;20412;-50
2021/06/21 04:10:32;;;;;;;21.97;18.23;;;;;;;;;;4991174;28;20801;-50
2021/06/21 04:12:58;;;;;;;20.77;18.80;;;;;;;;;;4991279;28;20420;-50
2021/06/21 04:15:28;;;;;;;19.63;17.40;;;;;;;;;;4973961;28;20753;-50
2021/06/21 04:17:55;;;;;;;18.37;16.63;;;;;;;;;;4991181;28;20460;-49
2021/06/21 04:20:21;;;;;;;20.43;18.33;;;;;;;;;;4991331;28;20677;-49
2021/06/21 04:22:47;;;;;;;20.63;18.47;;;;;;;;;;4990707;28;20520;-52
2021/06/21 04:25:14;;;;;;;20.70;18.80;;;;;;;;;;4991203;28;20491;-49
2021/06/21 04:27:41;;;;;;;23.13;20.80;;;;;;;;;;4990617;28;20415;-49
2021/06/21 04:30:10;;;;;;;20.37;18.47;;;;;;;;;;4991133;28;20439;-50
2021/06/21 04:32:36;;;;;;;20.13;18.20;;;;;;;;;;4990703;28;20498;-49
2021/06/21 04:35:03;;;;;;;21.70;19.80;;;;;;;;;;4991096;28;20399;-50
2021/06/21 04:37:29;;;;;;;21.90;19.60;;;;;;;;;;4990440;28;20513;-52
2021/06/21 04:39:55;;;;;;;21.07;19.13;;;;;;;;;;4991030;28;20416;-51
2021/06/21 04:42:21;;;;;;;21.77;19.80;;;;;;;;;;4990888;28;20662;-49
2021/06/21 04:44:48;;;;;;;21.97;19.87;;;;;;;;;;4991189;28;20411;-50
2021/06/21 04:47:14;;;;;;;20.70;18.73;;;;;;;;;;4990982;28;20563;-50
2021/06/21 04:49:40;;;;;;;20.33;18.30;;;;;;;;;;4991251;28;20443;-49
2021/06/21 04:52:08;;;;;;;20.60;18.70;;;;;;;;;;4990770;28;20427;-50
2021/06/21 04:54:34;;;;;;;20.60;18.50;;;;;;;;;;4990813;28;20411;-50
2021/06/21 04:57:00;;;;;;;25.10;19.93;;;;;;;;;;4990647;28;20454;-50
2021/06/21 04:59:26;;;;;;;20.80;18.80;;;;;;;;;;4990696;28;20474;-51
2021/06/21 05:01:52;;;;;;;20.60;18.60;;;;;;;;;;4990667;28;20419;-53
2021/06/21 05:04:18;;;;;;;20.70;18.80;;;;;;;;;;4990880;28;20404;-52
2021/06/21 05:06:44;;;;;;;18.13;16.37;;;;;;;;;;4990519;28;20603;-50
2021/06/21 05:09:11;;;;;;;16.23;14.63;;;;;;;;;;4990640;28;20403;-49
2021/06/21 05:11:37;;;;;;;12.50;11.20;;;;;;;;;;4990458;28;20431;-52
2021/06/21 05:14:03;;;;;;;13.13;9.90;;;;;;;;;;4991059;28;20413;-51
2021/06/21 05:16:29;;;;;;;13.17;9.63;;;;;;;;;;4994436;28;20451;-50
2021/06/21 05:18:55;;;;;;;9.90;8.97;;;;;;;;;;4994418;28;20877;-50
2021/06/21 05:21:21;;;;;;;11.57;9.20;;;;;;;;;;4994457;28;20496;-50
2021/06/21 05:23:47;;;;;;;11.07;9.27;;;;;;;;;;4994129;28;20960;-50
2021/06/21 05:26:13;;;;;;;12.37;9.20;;;;;;;;;;4994192;28;20805;-51
2021/06/21 05:28:40;;;;;;;19.30;9.23;;;;;;;;;;4994101;28;20450;-51
2021/06/21 05:31:06;;;;;;;11.30;8.07;;;;;;;;;;4994408;28;20411;-51
2021/06/21 05:33:32;;;;;;;8.83;7.93;;;;;;;;;;4994205;28;20446;-50
2021/06/21 05:35:58;;;;;;;11.70;8.40;;;;;;;;;;4994094;28;20404;-50
2021/06/21 05:38:24;;;;;;;8.63;7.70;;;;;;;;;;4993963;28;20818;-50
2021/06/21 05:40:50;;;;;;;10.73;7.57;;;;;;;;;;4993975;28;20498;-51
2021/06/21 05:43:16;;;;;;;8.57;7.63;;;;;;;;;;4993989;28;20562;-52
2021/06/21 05:45:42;;;;;;;8.43;6.67;;;;;;;;;;4993745;28;20403;-53
2021/06/21 05:48:08;;;;;;;7.77;5.90;;;;;;;;;;4994171;28;20877;-51
2021/06/21 05:50:37;;;;;;;13.63;8.10;;;;;;;;;;4993591;28;20408;-50
2021/06/21 05:53:02;;;;;;;7.47;6.27;;;;;;;;;;4993974;28;20943;-50
2021/06/21 05:55:28;;;;;;;6.20;4.70;;;;;;;;;;4993494;28;20416;-50
2021/06/21 05:57:54;;;;;;;10.40;5.80;;;;;;;;;;4993595;28;20971;-51
2021/06/21 06:00:24;;;;;;;10.87;4.40;;;;;;;;;;4993714;28;20954;-49
2021/06/21 06:02:50;;;;;;;10.30;4.43;;;;;;;;;;4993599;28;20419;-50
2021/06/21 06:05:17;;;;;;;9.33;3.70;;;;;;;;;;4993928;28;20396;-50
2021/06/21 06:07:43;;;;;;;9.20;4.73;;;;;;;;;;4993351;28;20488;-50
2021/06/21 06:10:10;;;;;;;9.93;3.90;;;;;;;;;;4993596;28;20411;-50
2021/06/21 06:12:36;;;;;;;7.03;3.80;;;;;;;;;;4993301;28;20912;-50
2021/06/21 06:15:02;;;;;;;9.07;5.20;;;;;;;;;;4993354;28;20462;-52
2021/06/21 06:17:28;;;;;;;9.00;3.80;;;;;;;;;;4993094;28;20447;-51
2021/06/21 06:19:54;;;;;;;8.03;4.13;;;;;;;;;;4993439;28;20826;-52
2021/06/21 06:22:20;;;;;;;5.80;4.00;;;;;;;;;;4993121;28;20428;-52
2021/06/21 06:24:47;;;;;;;8.57;3.40;;;;;;;;;;4993275;28;20407;-50
2021/06/21 06:27:13;;;;;;;8.10;3.80;;;;;;;;;;4992320;28;20491;-50
2021/06/21 06:29:39;;;;;;;5.43;3.87;;;;;;;;;;4993405;28;20548;-50
2021/06/21 06:32:05;;;;;;;8.17;3.70;;;;;;;;;;4993311;28;20470;-50
2021/06/21 06:34:31;;;;;;;5.77;3.93;;;;;;;;;;4993395;28;20404;-50
2021/06/21 06:36:57;;;;;;;7.50;4.27;;;;;;;;;;4993626;28;20448;-51
2021/06/21 06:39:24;;;;;;;6.77;3.90;;;;;;;;;;4993322;28;20443;-51
2021/06/21 06:41:50;;;;;;;4.30;3.40;;;;;;;;;;4992922;28;20420;-51
2021/06/21 06:44:16;;;;;;;4.10;3.30;;;;;;;;;;4992952;28;20410;-51
2021/06/21 06:46:42;;;;;;;7.23;4.00;;;;;;;;;;4992646;28;20418;-51
2021/06/21 06:49:08;;;;;;;9.73;3.87;;;;;;;;;;4992987;28;20428;-51
2021/06/21 06:51:54;;;;;;;6.30;4.33;;;;;;;;;;4992551;28;20434;-51
2021/06/21 06:54:23;;;;;;;5.77;3.47;;;;;;;;;;4992929;28;20416;-51
2021/06/21 06:57:02;;;;;;;7.17;3.97;;;;;;;;;;4992361;28;20464;-52
2021/06/21 06:59:35;;;;;;;7.63;3.70;;;;;;;;;;4992623;28;20392;-51
2021/06/21 07:02:05;;;;;;;6.60;3.30;;;;;;;;;;4992322;28;20511;-51
2021/06/21 07:04:31;;;;;;;10.13;3.93;;;;;;;;;;4992481;28;20713;-51
2021/06/21 07:07:00;;;;;;;8.67;5.03;;;;;;;;;;4992426;28;20408;-51
2021/06/21 07:09:27;;;;;;;4.90;3.50;;;;;;;;;;4992598;28;20944;-51
2021/06/21 07:11:53;;;;;;;13.73;3.80;;;;;;;;;;4992390;28;20428;-51
2021/06/21 07:14:20;;;;;;;3.77;3.00;;;;;;;;;;4992320;28;20408;-51
2021/06/21 07:16:47;;;;;;;9.73;3.03;;;;;;;;;;4991984;28;20455;-51
2021/06/21 07:19:13;;;;;;;6.00;2.87;;;;;;;;;;4992292;28;20404;-51
2021/06/21 07:21:40;;;;;;;9.60;4.40;;;;;;;;;;4992251;28;20463;-52
2021/06/21 07:24:06;;;;;;;15.40;2.90;;;;;;;;;;4992030;28;20403;-51
2021/06/21 07:26:32;;;;;;;4.33;3.03;;;;;;;;;;4991836;28;20544;-51
2021/06/21 07:28:58;;;;;;;7.37;3.10;;;;;;;;;;4992052;28;20490;-51
2021/06/21 07:31:24;;;;;;;4.13;2.60;;;;;;;;;;4992012;28;20475;-51
2021/06/21 07:33:50;;;;;;;6.27;3.20;;;;;;;;;;4991702;28;20432;-51
2021/06/21 07:36:16;;;;;;;8.60;3.10;;;;;;;;;;4991768;28;20408;-51
2021/06/21 07:38:42;;;;;;;7.20;3.10;;;;;;;;;;4989120;28;20414;-51
2021/06/21 07:41:09;;;;;;;4.63;3.23;;;;;;;;;;4987303;28;20439;-51
2021/06/21 07:43:35;;;;;;;5.40;3.57;;;;;;;;;;4991406;28;20411;-51
2021/06/21 07:46:01;;;;;;;5.23;2.93;;;;;;;;;;4991754;28;20396;-51
2021/06/21 07:48:27;;;;;;;7.33;3.20;;;;;;;;;;4991409;28;20411;-52
2021/06/21 07:50:53;;;;;;;6.53;3.50;;;;;;;;;;4991845;28;20408;-51
2021/06/21 07:53:19;;;;;;;8.13;3.37;;;;;;;;;;4991485;28;20447;-51
2021/06/21 07:55:45;;;;;;;6.10;3.00;;;;;;;;;;4991433;28;20411;-50
2021/06/21 07:58:11;;;;;;;7.47;3.60;;;;;;;;;;4991232;28;20951;-50
2021/06/21 08:00:39;;;;;;;4.90;2.90;;;;;;;;;;4991337;28;20400;-51
2021/06/21 08:03:09;;;;;;;5.47;3.00;;;;;;;;;;4991576;28;20419;-51
2021/06/21 08:05:35;;;;;;;9.50;3.57;;;;;;;;;;4991319;28;20396;-51
2021/06/21 08:08:01;;;;;;;12.30;3.50;;;;;;;;;;4991351;28;20809;-51
2021/06/21 08:10:27;;;;;;;9.80;3.20;;;;;;;;;;4991012;28;20431;-51
2021/06/21 08:12:53;;;;;;;8.13;3.17;;;;;;;;;;4991224;28;20456;-50
2021/06/21 08:15:19;;;;;;;4.47;2.70;;;;;;;;;;4991534;28;20759;-50
2021/06/21 08:17:45;;;;;;;5.83;2.93;;;;;;;;;;4990928;28;20543;-51
2021/06/21 08:20:12;;;;;;;4.47;2.70;;;;;;;;;;4991254;28;20611;-51
2021/06/21 08:22:38;;;;;;;5.53;2.97;;;;;;;;;;4990952;28;20911;-50
2021/06/21 08:25:05;;;;;;;7.10;3.10;;;;;;;;;;4991171;28;20444;-51
2021/06/21 08:27:31;;;;;;;7.27;2.60;;;;;;;;;;4990908;28;20416;-52
2021/06/21 08:29:58;;;;;;;2.93;2.70;;;;;;;;;;4991041;28;20455;-51
2021/06/21 08:32:24;;;;;;;3.87;3.00;;;;;;;;;;4990207;28;20475;-51
2021/06/21 08:34:50;;;;;;;5.17;2.73;;;;;;;;;;4991481;28;20439;-50
2021/06/21 08:37:17;;;;;;;4.10;3.03;;;;;;;;;;4990843;28;20463;-50
2021/06/21 08:39:44;;;;;;;3.70;2.67;;;;;;;;;;4990707;28;20440;-50
2021/06/21 08:42:10;;;;;;;4.10;3.13;;;;;;;;;;4990902;28;20428;-51
2021/06/21 08:44:37;;;;;;;5.37;2.47;;;;;;;;;;4990717;28;20483;-50
2021/06/21 08:47:04;;;;;;;3.00;2.80;;;;;;;;;;4990600;28;20491;-52
2021/06/21 08:49:33;;;;;;;6.93;2.30;;;;;;;;;;4990226;28;20408;-51
2021/06/21 08:51:59;;;;;;;3.77;2.27;;;;;;;;;;4990718;28;20494;-51
2021/06/21 08:54:25;;;;;;;2.97;2.47;;;;;;;;;;4990489;28;20416;-51
2021/06/21 08:56:55;;;;;;;6.50;3.40;;;;;;;;;;4988203;28;20968;-50
2021/06/21 08:59:21;;;;;;;2.87;2.60;;;;;;;;;;4986236;28;20500;-50
2021/06/21 09:01:47;;;;;;;7.20;3.10;;;;;;;;;;4973021;28;20530;-51
2021/06/21 09:04:13;;;;;;;5.17;3.07;;;;;;;;;;4990191;28;20442;-50
2021/06/21 09:06:40;;;;;;;5.73;3.27;;;;;;;;;;4989575;28;20416;-50
2021/06/21 09:09:07;;;;;;;6.10;3.47;;;;;;;;;;4988567;28;20428;-50
2021/06/21 09:11:49;;;;;;;4.10;3.07;;;;;;;;;;4988860;28;20427;-50
2021/06/21 09:14:24;;;;;;;3.53;3.13;;;;;;;;;;4990399;28;20411;-50
2021/06/21 09:16:50;;;;;;;4.93;2.60;;;;;;;;;;4990055;28;20571;-51
2021/06/21 09:19:18;;;;;;;2.90;2.70;;;;;;;;;;4990498;28;20495;-50
2021/06/21 09:21:44;;;;;;;3.57;2.87;;;;;;;;;;4990245;28;20474;-50
2021/06/21 09:24:19;;;;;;;3.23;2.50;;;;;;;;;;4990350;28;20404;-50
2021/06/21 09:26:45;;;;;;;4.33;2.83;;;;;;;;;;4990064;28;20965;-51
2021/06/21 09:29:11;;;;;;;3.67;3.37;;;;;;;;;;4990611;28;20415;-50
2021/06/21 09:31:54;;;;;;;4.87;3.43;;;;;;;;;;4990102;28;20423;-50
2021/06/21 09:34:21;;;;;;;5.23;4.43;;;;;;;;;;4990424;28;20880;-50
2021/06/21 09:36:47;;;;;;;4.63;4.07;;;;;;;;;;4989797;28;20452;-50
2021/06/21 09:39:20;;;;;;;9.10;8.40;;;;;;;;;;4990375;28;20435;-50
2021/06/21 09:42:05;;;;;;;14.77;10.87;;;;;;;;;;4989980;28;20459;-50
2021/06/21 09:44:35;;;;;;;13.70;11.60;;;;;;;;;;4990014;28;20442;-50
2021/06/21 09:47:16;;;;;;;23.43;19.40;;;;;;;;;;4989912;28;20428;-51
2021/06/21 09:50:11;;;;;;;17.90;16.33;;;;;;;;;;4990232;28;20954;-50
2021/06/21 09:52:49;;;;;;;21.67;19.67;;;;;;;;;;4972988;28;20511;-50
2021/06/21 09:55:35;;;;;;;22.23;19.87;;;;;;;;;;4989647;28;20486;-50
2021/06/21 09:58:09;;;;;;;26.67;23.97;;;;;;;;;;4989917;28;20456;-50
2021/06/21 10:00:40;;;;;;;28.70;25.80;;;;;;;;;;4990372;28;20418;-50
2021/06/21 10:03:07;;;;;;;32.20;27.97;;;;;;;;;;4993563;28;20420;-50
2021/06/21 10:05:36;;;;;;;36.47;30.07;;;;;;;;;;4993848;28;20762;-50
2021/06/21 10:08:02;;;;;;;34.37;28.70;;;;;;;;;;4993372;28;20443;-50
2021/06/21 10:10:31;;;;;;;33.33;29.50;;;;;;;;;;4993660;28;20415;-50
2021/06/21 10:12:57;;;;;;;36.87;30.50;;;;;;;;;;4994022;28;20444;-51
2021/06/21 10:15:23;;;;;;;35.03;30.23;;;;;;;;;;4993652;28;20495;-50
2021/06/21 10:17:49;;;;;;;38.30;33.23;;;;;;;;;;4993321;28;20482;-50
2021/06/21 10:20:15;;;;;;;41.30;31.33;;;;;;;;;;4993672;28;20392;-51
2021/06/21 10:22:42;;;;;;;43.13;32.00;;;;;;;;;;4993477;28;20626;-50
2021/06/21 10:25:09;;;;;;;42.17;32.67;;;;;;;;;;4993668;28;20400;-50
2021/06/21 10:27:37;;;;;;;34.90;28.00;;;;;;;;;;4993504;28;20420;-51
2021/06/21 10:30:04;;;;;;;33.67;25.83;;;;;;;;;;4993786;28;20503;-50
2021/06/21 10:32:30;;;;;;;31.13;23.53;;;;;;;;;;4993514;28;20463;-50
2021/06/21 10:34:56;;;;;;;32.73;26.07;;;;;;;;;;4993472;28;20404;-50
2021/06/21 10:37:25;;;;;;;33.80;26.50;;;;;;;;;;4993507;28;20458;-50
2021/06/21 10:40:10;;;;;;;34.80;27.73;;;;;;;;;;4993557;28;20405;-50
2021/06/21 10:42:42;;;;;;;33.00;25.63;;;;;;;;;;4993078;28;20424;-50
2021/06/21 10:45:16;;;;;;;42.63;27.50;;;;;;;;;;4993149;28;20415;-49
2021/06/21 10:47:42;;;;;;;35.20;26.13;;;;;;;;;;4992859;28;20885;-50
2021/06/21 10:50:18;;;;;;;35.97;28.10;;;;;;;;;;4992844;28;20840;-50
2021/06/21 10:52:47;;;;;;;37.50;28.13;;;;;;;;;;4992518;28;20451;-51
2021/06/21 10:55:26;;;;;;;40.20;31.07;;;;;;;;;;4992686;28;20914;-50
2021/06/21 10:57:55;;;;;;;38.40;28.10;;;;;;;;;;4992751;28;20458;-50
2021/06/21 11:00:23;;;;;;;36.43;27.30;;;;;;;;;;4992907;28;20416;-49
2021/06/21 11:02:49;;;;;;;32.20;24.80;;;;;;;;;;4991445;28;20481;-50
2021/06/21 11:05:41;;;;;;;28.47;23.60;;;;;;;;;;4992187;28;20447;-50
2021/06/21 11:08:16;;;;;;;31.90;25.80;;;;;;;;;;4989870;28;20427;-50
2021/06/21 11:10:42;;;;;;;33.33;26.87;;;;;;;;;;4992287;28;20410;-50
2021/06/21 11:13:27;;;;;;;40.47;27.20;;;;;;;;;;4992074;28;20435;-50
2021/06/21 11:16:11;;;;;;;41.27;28.90;;;;;;;;;;4992458;28;20400;-50
2021/06/21 11:18:37;;;;;;;37.43;28.17;;;;;;;;;;4992304;28;20443;-50
2021/06/21 11:21:13;;;;;;;39.37;27.40;;;;;;;;;;4992375;28;20766;-50
2021/06/21 11:23:49;;;;;;;34.07;25.00;;;;;;;;;;4992080;28;20411;-49
2021/06/21 11:26:15;;;;;;;29.30;21.00;;;;;;;;;;4991953;28;20564;-50
2021/06/21 11:28:43;;;;;;;25.73;18.23;;;;;;;;;;4991888;28;20415;-50
2021/06/21 11:31:28;;;;;;;22.60;15.93;;;;;;;;;;4991906;28;20446;-50
2021/06/21 11:33:56;;;;;;;20.77;15.03;;;;;;;;;;4992182;28;20400;-50
2021/06/21 11:36:51;;;;;;;18.10;14.53;;;;;;;;;;4991704;28;20499;-50
2021/06/21 11:39:27;;;;;;;19.40;15.80;;;;;;;;;;4979392;28;20424;-49
2021/06/21 11:41:58;;;;;;;14.83;13.33;;;;;;;;;;4991552;28;20596;-50
2021/06/21 11:44:39;;;;;;;15.70;13.77;;;;;;;;;;4991965;28;20803;-50
2021/06/21 11:47:15;;;;;;;13.20;12.00;;;;;;;;;;4991570;28;20511;-50
2021/06/21 11:49:44;;;;;;;14.53;10.07;;;;;;;;;;4991710;28;20374;-50
2021/06/21 11:52:11;;;;;;;8.70;7.90;;;;;;;;;;4991971;28;20436;-50
2021/06/21 11:54:39;;;;;;;6.97;6.37;;;;;;;;;;4991521;28;20408;-50
2021/06/21 11:57:05;;;;;;;7.60;7.00;;;;;;;;;;4991474;28;20422;-50
2021/06/21 11:59:42;;;;;;;8.50;7.70;;;;;;;;;;4991614;28;20454;-50
2021/06/21 12:02:13;;;;;;;9.47;8.60;;;;;;;;;;4991799;28;20429;-50
2021/06/21 12:04:40;;;;;;;9.53;8.70;;;;;;;;;;4991599;28;20367;-50
2021/06/21 12:07:06;;;;;;;9.23;8.53;;;;;;;;;;4991665;28;20379;-50
2021/06/21 12:09:38;;;;;;;10.53;9.43;;;;;;;;;;4991431;28;20396;-50
2021/06/21 12:12:04;;;;;;;9.57;8.60;;;;;;;;;;4991645;28;20462;-50
2021/06/21 12:14:30;;;;;;;7.37;6.77;;;;;;;;;;4991306;28;20404;-49
2021/06/21 12:17:07;;;;;;;6.10;5.50;;;;;;;;;;4991424;28;20885;-50
2021/06/21 12:19:33;;;;;;;5.90;5.40;;;;;;;;;;4991597;28;20408;-52
2021/06/21 12:22:02;;;;;;;5.87;5.47;;;;;;;;;;4991545;28;20401;-50
2021/06/21 12:24:32;;;;;;;7.50;6.90;;;;;;;;;;4990388;28;20747;-50
2021/06/21 12:26:59;;;;;;;7.00;6.50;;;;;;;;;;4991013;28;20411;-50
2021/06/21 12:29:27;;;;;;;8.40;7.80;;;;;;;;;;4991310;28;20798;-49
2021/06/21 12:31:53;;;;;;;7.90;7.30;;;;;;;;;;4991163;28;20886;-50
2021/06/21 12:34:38;;;;;;;7.67;6.20;;;;;;;;;;4991132;28;20404;-50
2021/06/21 12:37:11;;;;;;;6.77;6.10;;;;;;;;;;4991442;28;20459;-50
2021/06/21 12:39:37;;;;;;;8.33;7.63;;;;;;;;;;4990858;28;20507;-50
2021/06/21 12:42:07;;;;;;;9.37;6.87;;;;;;;;;;4990815;28;20466;-50
2021/06/21 12:44:33;;;;;;;8.30;6.40;;;;;;;;;;4990851;28;20388;-50
2021/06/21 12:46:59;;;;;;;6.97;6.43;;;;;;;;;;4990766;28;20466;-49
2021/06/21 12:49:25;;;;;;;8.10;6.87;;;;;;;;;;4990864;28;20844;-49
2021/06/21 12:51:52;;;;;;;8.20;7.60;;;;;;;;;;4991229;28;20413;-50
2021/06/21 12:54:22;;;;;;;7.10;6.50;;;;;;;;;;4990895;28;20908;-50
2021/06/21 12:56:49;;;;;;;8.50;7.70;;;;;;;;;;4979722;28;20478;-50
2021/06/21 12:59:34;;;;;;;7.93;7.10;;;;;;;;;;4990366;28;20409;-50
2021/06/21 13:02:01;;;;;;;7.97;6.13;;;;;;;;;;4973549;28;20420;-50
2021/06/21 13:04:27;;;;;;;4.40;4.10;;;;;;;;;;4990817;28;20462;-50
2021/06/21 13:07:06;;;;;;;6.13;4.40;;;;;;;;;;4983225;28;20408;-50
2021/06/21 13:09:46;;;;;;;4.10;3.90;;;;;;;;;;4990898;28;21112;-50
2021/06/21 13:12:31;;;;;;;3.87;3.67;;;;;;;;;;4990376;28;20399;-50
2021/06/21 13:15:10;;;;;;;4.03;3.80;;;;;;;;;;4974508;28;20413;-50
2021/06/21 13:17:36;;;;;;;4.10;3.67;;;;;;;;;;4989068;28;20434;-52
2021/06/21 13:20:07;;;;;;;3.13;3.03;;;;;;;;;;4991922;28;20885;-50
2021/06/21 13:22:33;;;;;;;3.00;2.90;;;;;;;;;;4978121;28;20414;-50
2021/06/21 13:25:00;;;;;;;5.00;3.77;;;;;;;;;;4972470;28;20429;-51
2021/06/21 13:27:30;;;;;;;10.53;3.70;;;;;;;;;;4988921;28;20407;-50
2021/06/21 13:29:58;;;;;;;6.33;4.30;;;;;;;;;;4989391;28;20383;-50
2021/06/21 13:32:25;;;;;;;4.40;4.00;;;;;;;;;;4989750;28;20406;-50
2021/06/21 13:34:52;;;;;;;5.77;4.47;;;;;;;;;;4990439;28;20390;-50
2021/06/21 13:37:22;;;;;;;5.60;4.40;;;;;;;;;;4994917;28;20469;-50
2021/06/21 13:40:03;;;;;;;5.67;5.23;;;;;;;;;;4995393;28;20387;-50
2021/06/21 13:42:53;;;;;;;6.73;4.60;;;;;;;;;;4994906;28;20408;-50
2021/06/21 13:45:21;;;;;;;6.90;3.97;;;;;;;;;;4985386;28;20766;-50
2021/06/21 13:47:49;;;;;;;4.77;4.47;;;;;;;;;;4977563;28;20434;-50
2021/06/21 13:50:16;;;;;;;3.87;3.67;;;;;;;;;;4977339;28;20974;-50
2021/06/21 13:52:42;;;;;;;4.70;4.30;;;;;;;;;;4994528;28;20419;-50
2021/06/21 13:55:09;;;;;;;5.40;4.70;;;;;;;;;;4994742;28;20395;-50
2021/06/21 13:57:46;;;;;;;4.10;3.80;;;;;;;;;;4994401;28;20796;-50
2021/06/21 14:00:32;;;;;;;5.27;4.90;;;;;;;;;;4994663;28;20748;-50
2021/06/21 14:02:58;;;;;;;4.47;4.23;;;;;;;;;;4994136;28;20423;-50
2021/06/21 14:05:26;;;;;;;4.40;4.10;;;;;;;;;;4994072;28;20402;-50
2021/06/21 14:07:52;;;;;;;5.50;5.00;;;;;;;;;;4992163;28;20375;-50
2021/06/21 14:10:19;;;;;;;5.53;5.13;;;;;;;;;;4991655;28;20454;-50
2021/06/21 14:12:45;;;;;;;5.57;4.30;;;;;;;;;;4991613;28;20424;-50
2021/06/21 14:15:11;;;;;;;5.30;4.80;;;;;;;;;;4991435;28;20412;-50
2021/06/21 14:17:38;;;;;;;6.23;5.83;;;;;;;;;;4991223;28;20430;-50
2021/06/21 14:20:04;;;;;;;7.57;4.83;;;;;;;;;;4990935;28;20879;-50
2021/06/21 14:22:30;;;;;;;5.20;4.90;;;;;;;;;;4992283;28;20386;-50
2021/06/21 14:24:56;;;;;;;6.03;4.83;;;;;;;;;;4993643;28;20371;-50
2021/06/21 14:27:22;;;;;;;5.93;5.13;;;;;;;;;;4993040;28;20474;-50
2021/06/21 14:29:48;;;;;;;7.03;5.00;;;;;;;;;;4993052;28;20390;-50
2021/06/21 14:32:14;;;;;;;5.10;4.80;;;;;;;;;;4993146;28;20424;-50
2021/06/21 14:34:40;;;;;;;5.90;5.17;;;;;;;;;;4992285;28;20408;-50
2021/06/21 14:37:06;;;;;;;5.47;5.07;;;;;;;;;;4993089;28;20551;-50